sensor_id;sensor_type;location;lat;lon;timestamp;temperature;humidity
8856;DHT22;4464;50.882;4.730;2023-02-22T00:01:33;6.10;99.90
8856;DHT22;4464;50.882;4.730;2023-02-22T00:04:15;6.10;99.90
8856;DHT22;4464;50.882;4.730;2023-02-22T00:06:45;6.00;99.90
8856;DHT22;4464;50.882;4.730;2023-02-22T00:09:11;6.00;99.90
8856;DHT22;4464;50.882;4.730;2023-02-22T00:11:38;6.10;99.90
8856;DHT22;4464;50.882;4.730;2023-02-22T00:14:13;6.00;99.90
8856;DHT22;4464;50.882;4.730;2023-02-22T00:16:44;6.00;99.90
8856;DHT22;4464;50.882;4.730;2023-02-22T00:19:10;5.90;99.90
8856;DHT22;4464;50.882;4.730;2023-02-22T00:21:36;6.00;99.90
8856;DHT22;4464;50.882;4.730;2023-02-22T00:24:04;5.90;99.90
8856;DHT22;4464;50.882;4.730;2023-02-22T00:26:49;5.90;99.90
8856;DHT22;4464;50.882;4.730;2023-02-22T00:29:17;5.90;99.90
8856;DHT22;4464;50.882;4.730;2023-02-22T00:31:45;5.80;99.90
8856;DHT22;4464;50.882;4.730;2023-02-22T00:34:12;5.60;99.90
8856;DHT22;4464;50.882;4.730;2023-02-22T00:36:44;5.60;99.90
8856;DHT22;4464;50.882;4.730;2023-02-22T00:39:11;5.50;99.90
8856;DHT22;4464;50.882;4.730;2023-02-22T00:41:37;5.60;99.90
8856;DHT22;4464;50.882;4.730;2023-02-22T00:44:07;5.60;99.90
8856;DHT22;4464;50.882;4.730;2023-02-22T00:46:33;5.60;99.90
8856;DHT22;4464;50.882;4.730;2023-02-22T00:49:01;5.60;99.90
8856;DHT22;4464;50.882;4.730;2023-02-22T00:51:27;5.40;99.90
8856;DHT22;4464;50.882;4.730;2023-02-22T00:53:53;5.40;99.90
8856;DHT22;4464;50.882;4.730;2023-02-22T00:56:18;5.40;99.90
8856;DHT22;4464;50.882;4.730;2023-02-22T00:58:44;5.40;99.90
8856;DHT22;4464;50.882;4.730;2023-02-22T01:01:10;5.50;99.90
8856;DHT22;4464;50.882;4.730;2023-02-22T01:03:40;5.50;99.90
8856;DHT22;4464;50.882;4.730;2023-02-22T01:06:08;5.50;99.90
8856;DHT22;4464;50.882;4.730;2023-02-22T01:08:36;5.40;99.90
8856;DHT22;4464;50.882;4.730;2023-02-22T01:11:05;5.40;99.90
8856;DHT22;4464;50.882;4.730;2023-02-22T01:13:33;5.50;99.90
8856;DHT22;4464;50.882;4.730;2023-02-22T01:15:59;5.40;99.90
8856;DHT22;4464;50.882;4.730;2023-02-22T01:18:25;5.30;99.90
8856;DHT22;4464;50.882;4.730;2023-02-22T01:20:51;5.30;99.90
8856;DHT22;4464;50.882;4.730;2023-02-22T01:23:17;5.30;99.90
8856;DHT22;4464;50.882;4.730;2023-02-22T01:25:43;5.20;99.90
8856;DHT22;4464;50.882;4.730;2023-02-22T01:28:09;5.10;99.90
8856;DHT22;4464;50.882;4.730;2023-02-22T01:30:35;5.20;99.90
8856;DHT22;4464;50.882;4.730;2023-02-22T01:33:03;5.20;99.90
8856;DHT22;4464;50.882;4.730;2023-02-22T01:35:32;5.20;99.90
8856;DHT22;4464;50.882;4.730;2023-02-22T01:38:01;5.20;99.90
8856;DHT22;4464;50.882;4.730;2023-02-22T01:40:30;5.20;99.90
8856;DHT22;4464;50.882;4.730;2023-02-22T01:43:14;5.30;99.90
8856;DHT22;4464;50.882;4.730;2023-02-22T01:45:47;5.30;99.90
8856;DHT22;4464;50.882;4.730;2023-02-22T01:48:21;5.20;99.90
8856;DHT22;4464;50.882;4.730;2023-02-22T01:50:51;5.10;99.90
8856;DHT22;4464;50.882;4.730;2023-02-22T01:53:25;5.00;99.90
8856;DHT22;4464;50.882;4.730;2023-02-22T01:55:52;4.90;99.90
8856;DHT22;4464;50.882;4.730;2023-02-22T01:58:20;4.90;99.90
8856;DHT22;4464;50.882;4.730;2023-02-22T02:00:47;4.80;99.90
8856;DHT22;4464;50.882;4.730;2023-02-22T02:03:17;4.70;99.90
8856;DHT22;4464;50.882;4.730;2023-02-22T02:05:47;4.60;99.90
8856;DHT22;4464;50.882;4.730;2023-02-22T02:11:23;4.50;99.90
8856;DHT22;4464;50.882;4.730;2023-02-22T02:13:55;4.50;99.90
8856;DHT22;4464;50.882;4.730;2023-02-22T02:16:37;4.50;99.90
8856;DHT22;4464;50.882;4.730;2023-02-22T02:33:46;4.50;99.90
8856;DHT22;4464;50.882;4.730;2023-02-22T02:36:47;4.50;99.90
8856;DHT22;4464;50.882;4.730;2023-02-22T02:39:24;4.50;99.90
8856;DHT22;4464;50.882;4.730;2023-02-22T02:41:52;4.50;99.90
8856;DHT22;4464;50.882;4.730;2023-02-22T02:47:09;4.50;99.90
8856;DHT22;4464;50.882;4.730;2023-02-22T02:49:49;4.40;99.90
8856;DHT22;4464;50.882;4.730;2023-02-22T02:52:17;4.40;99.90
8856;DHT22;4464;50.882;4.730;2023-02-22T02:54:45;4.30;99.90
8856;DHT22;4464;50.882;4.730;2023-02-22T02:57:12;4.30;99.90
8856;DHT22;4464;50.882;4.730;2023-02-22T02:59:37;4.20;99.90
8856;DHT22;4464;50.882;4.730;2023-02-22T03:13:18;4.30;99.90
8856;DHT22;4464;50.882;4.730;2023-02-22T03:18:27;4.30;99.90
8856;DHT22;4464;50.882;4.730;2023-02-22T03:20:59;4.30;99.90
8856;DHT22;4464;50.882;4.730;2023-02-22T03:23:36;4.30;99.90
8856;DHT22;4464;50.882;4.730;2023-02-22T03:26:13;4.30;99.90
8856;DHT22;4464;50.882;4.730;2023-02-22T03:28:40;4.30;99.90
8856;DHT22;4464;50.882;4.730;2023-02-22T03:31:18;4.30;99.90
8856;DHT22;4464;50.882;4.730;2023-02-22T03:33:50;4.20;99.90
8856;DHT22;4464;50.882;4.730;2023-02-22T03:36:30;4.20;99.90
8856;DHT22;4464;50.882;4.730;2023-02-22T03:38:57;4.30;99.90
8856;DHT22;4464;50.882;4.730;2023-02-22T03:41:26;4.30;99.90
8856;DHT22;4464;50.882;4.730;2023-02-22T03:44:04;4.20;99.90
8856;DHT22;4464;50.882;4.730;2023-02-22T03:46:34;4.20;99.90
8856;DHT22;4464;50.882;4.730;2023-02-22T03:49:34;4.20;99.90
8856;DHT22;4464;50.882;4.730;2023-02-22T03:52:02;4.20;99.90
8856;DHT22;4464;50.882;4.730;2023-02-22T03:54:29;4.30;99.90
8856;DHT22;4464;50.882;4.730;2023-02-22T03:57:07;4.30;99.90
8856;DHT22;4464;50.882;4.730;2023-02-22T03:59:37;4.30;99.90
8856;DHT22;4464;50.882;4.730;2023-02-22T04:02:06;4.30;99.90
8856;DHT22;4464;50.882;4.730;2023-02-22T04:04:31;4.30;99.90
8856;DHT22;4464;50.882;4.730;2023-02-22T04:06:57;4.30;99.90
8856;DHT22;4464;50.882;4.730;2023-02-22T04:09:28;4.20;99.90
8856;DHT22;4464;50.882;4.730;2023-02-22T04:11:56;4.20;99.90
8856;DHT22;4464;50.882;4.730;2023-02-22T04:14:22;4.20;99.90
8856;DHT22;4464;50.882;4.730;2023-02-22T04:16:47;4.20;99.90
8856;DHT22;4464;50.882;4.730;2023-02-22T04:19:13;4.20;99.90
8856;DHT22;4464;50.882;4.730;2023-02-22T04:21:41;4.20;99.90
8856;DHT22;4464;50.882;4.730;2023-02-22T04:24:09;4.20;99.90
8856;DHT22;4464;50.882;4.730;2023-02-22T04:26:36;4.10;99.90
8856;DHT22;4464;50.882;4.730;2023-02-22T04:29:04;4.10;99.90
8856;DHT22;4464;50.882;4.730;2023-02-22T04:31:32;4.00;99.90
8856;DHT22;4464;50.882;4.730;2023-02-22T04:33:59;4.00;99.90
8856;DHT22;4464;50.882;4.730;2023-02-22T04:36:29;4.00;99.90
8856;DHT22;4464;50.882;4.730;2023-02-22T04:38:59;3.90;99.90
8856;DHT22;4464;50.882;4.730;2023-02-22T04:41:25;3.90;99.90
8856;DHT22;4464;50.882;4.730;2023-02-22T04:43:53;3.90;99.90
8856;DHT22;4464;50.882;4.730;2023-02-22T04:46:19;3.90;99.90
8856;DHT22;4464;50.882;4.730;2023-02-22T04:48:48;3.90;99.90
8856;DHT22;4464;50.882;4.730;2023-02-22T04:51:16;4.00;99.90
8856;DHT22;4464;50.882;4.730;2023-02-22T04:53:42;4.00;99.90
8856;DHT22;4464;50.882;4.730;2023-02-22T04:56:08;4.00;99.90
8856;DHT22;4464;50.882;4.730;2023-02-22T04:58:34;4.00;99.90
8856;DHT22;4464;50.882;4.730;2023-02-22T05:01:02;4.00;99.90
8856;DHT22;4464;50.882;4.730;2023-02-22T05:03:28;4.10;99.90
8856;DHT22;4464;50.882;4.730;2023-02-22T05:05:54;4.20;99.90
8856;DHT22;4464;50.882;4.730;2023-02-22T05:08:19;4.30;99.90
8856;DHT22;4464;50.882;4.730;2023-02-22T05:10:45;4.20;99.90
8856;DHT22;4464;50.882;4.730;2023-02-22T05:13:13;4.20;99.90
8856;DHT22;4464;50.882;4.730;2023-02-22T05:15:39;4.20;99.90
8856;DHT22;4464;50.882;4.730;2023-02-22T05:18:07;4.10;99.90
8856;DHT22;4464;50.882;4.730;2023-02-22T05:20:34;4.20;99.90
8856;DHT22;4464;50.882;4.730;2023-02-22T05:23:01;4.10;99.90
8856;DHT22;4464;50.882;4.730;2023-02-22T05:25:27;4.10;99.90
8856;DHT22;4464;50.882;4.730;2023-02-22T05:27:55;4.10;99.90
8856;DHT22;4464;50.882;4.730;2023-02-22T05:30:25;4.10;99.90
8856;DHT22;4464;50.882;4.730;2023-02-22T05:32:52;4.10;99.90
8856;DHT22;4464;50.882;4.730;2023-02-22T05:35:23;4.10;99.90
8856;DHT22;4464;50.882;4.730;2023-02-22T05:37:48;4.10;99.90
8856;DHT22;4464;50.882;4.730;2023-02-22T05:40:23;4.10;99.90
8856;DHT22;4464;50.882;4.730;2023-02-22T05:42:49;4.10;99.90
8856;DHT22;4464;50.882;4.730;2023-02-22T05:45:23;4.00;99.90
8856;DHT22;4464;50.882;4.730;2023-02-22T05:47:52;3.90;99.90
8856;DHT22;4464;50.882;4.730;2023-02-22T05:50:21;3.80;99.90
8856;DHT22;4464;50.882;4.730;2023-02-22T05:52:49;3.80;99.90
8856;DHT22;4464;50.882;4.730;2023-02-22T05:55:17;3.80;99.90
8856;DHT22;4464;50.882;4.730;2023-02-22T05:57:43;3.90;99.90
8856;DHT22;4464;50.882;4.730;2023-02-22T06:00:14;3.80;99.90
8856;DHT22;4464;50.882;4.730;2023-02-22T06:02:43;3.70;99.90
8856;DHT22;4464;50.882;4.730;2023-02-22T06:05:09;3.80;99.90
8856;DHT22;4464;50.882;4.730;2023-02-22T06:07:35;3.70;99.90
8856;DHT22;4464;50.882;4.730;2023-02-22T06:10:00;3.70;99.90
8856;DHT22;4464;50.882;4.730;2023-02-22T06:12:26;3.80;99.90
8856;DHT22;4464;50.882;4.730;2023-02-22T06:14:54;3.80;99.90
8856;DHT22;4464;50.882;4.730;2023-02-22T06:17:20;3.70;99.90
8856;DHT22;4464;50.882;4.730;2023-02-22T06:19:46;3.80;99.90
8856;DHT22;4464;50.882;4.730;2023-02-22T06:22:17;3.90;99.90
8856;DHT22;4464;50.882;4.730;2023-02-22T06:24:46;3.80;99.90
8856;DHT22;4464;50.882;4.730;2023-02-22T06:27:12;3.80;99.90
8856;DHT22;4464;50.882;4.730;2023-02-22T06:29:38;3.80;99.90
8856;DHT22;4464;50.882;4.730;2023-02-22T06:32:04;3.80;99.90
8856;DHT22;4464;50.882;4.730;2023-02-22T06:34:29;3.90;99.90
8856;DHT22;4464;50.882;4.730;2023-02-22T06:36:55;3.90;99.90
8856;DHT22;4464;50.882;4.730;2023-02-22T06:39:21;3.90;99.90
8856;DHT22;4464;50.882;4.730;2023-02-22T06:41:47;4.00;99.90
8856;DHT22;4464;50.882;4.730;2023-02-22T06:44:14;3.90;99.90
8856;DHT22;4464;50.882;4.730;2023-02-22T06:46:49;3.80;99.90
8856;DHT22;4464;50.882;4.730;2023-02-22T06:49:19;3.80;99.90
8856;DHT22;4464;50.882;4.730;2023-02-22T06:51:45;3.80;99.90
8856;DHT22;4464;50.882;4.730;2023-02-22T06:54:11;3.90;99.90
8856;DHT22;4464;50.882;4.730;2023-02-22T06:56:40;3.90;99.90
8856;DHT22;4464;50.882;4.730;2023-02-22T06:59:08;3.90;99.90
8856;DHT22;4464;50.882;4.730;2023-02-22T07:01:34;3.80;99.90
8856;DHT22;4464;50.882;4.730;2023-02-22T07:04:00;3.80;99.90
8856;DHT22;4464;50.882;4.730;2023-02-22T07:06:26;4.00;99.90
8856;DHT22;4464;50.882;4.730;2023-02-22T07:08:52;3.90;99.90
8856;DHT22;4464;50.882;4.730;2023-02-22T07:11:20;3.80;99.90
8856;DHT22;4464;50.882;4.730;2023-02-22T07:13:46;3.80;99.90
8856;DHT22;4464;50.882;4.730;2023-02-22T07:16:14;3.90;99.90
8856;DHT22;4464;50.882;4.730;2023-02-22T07:18:40;3.90;99.90
8856;DHT22;4464;50.882;4.730;2023-02-22T07:21:06;4.00;99.90
8856;DHT22;4464;50.882;4.730;2023-02-22T07:23:32;4.00;99.90
8856;DHT22;4464;50.882;4.730;2023-02-22T07:26:02;4.10;99.90
8856;DHT22;4464;50.882;4.730;2023-02-22T07:28:29;4.10;99.90
8856;DHT22;4464;50.882;4.730;2023-02-22T07:30:55;4.10;99.90
8856;DHT22;4464;50.882;4.730;2023-02-22T07:33:21;4.20;99.90
8856;DHT22;4464;50.882;4.730;2023-02-22T07:35:49;4.30;99.90
8856;DHT22;4464;50.882;4.730;2023-02-22T07:38:18;4.40;99.90
8856;DHT22;4464;50.882;4.730;2023-02-22T07:40:44;4.60;99.90
8856;DHT22;4464;50.882;4.730;2023-02-22T07:43:22;4.60;99.90
8856;DHT22;4464;50.882;4.730;2023-02-22T07:45:50;4.70;99.90
8856;DHT22;4464;50.882;4.730;2023-02-22T07:48:20;4.80;99.90
8856;DHT22;4464;50.882;4.730;2023-02-22T07:50:46;4.90;99.90
8856;DHT22;4464;50.882;4.730;2023-02-22T07:53:18;4.90;99.90
8856;DHT22;4464;50.882;4.730;2023-02-22T07:55:44;5.00;99.90
8856;DHT22;4464;50.882;4.730;2023-02-22T07:58:14;5.10;99.90
8856;DHT22;4464;50.882;4.730;2023-02-22T08:00:40;5.30;99.90
8856;DHT22;4464;50.882;4.730;2023-02-22T08:03:07;5.50;99.90
8856;DHT22;4464;50.882;4.730;2023-02-22T08:05:38;5.60;99.90
8856;DHT22;4464;50.882;4.730;2023-02-22T08:08:05;5.70;99.90
8856;DHT22;4464;50.882;4.730;2023-02-22T08:10:31;5.90;99.90
8856;DHT22;4464;50.882;4.730;2023-02-22T08:13:00;6.20;99.90
8856;DHT22;4464;50.882;4.730;2023-02-22T08:15:29;6.50;99.90
8856;DHT22;4464;50.882;4.730;2023-02-22T08:17:57;6.80;99.90
8856;DHT22;4464;50.882;4.730;2023-02-22T08:20:26;6.80;99.90
8856;DHT22;4464;50.882;4.730;2023-02-22T08:22:53;6.90;99.90
8856;DHT22;4464;50.882;4.730;2023-02-22T08:25:24;6.80;99.90
8856;DHT22;4464;50.882;4.730;2023-02-22T08:27:50;6.80;99.90
8856;DHT22;4464;50.882;4.730;2023-02-22T08:30:21;6.90;99.90
8856;DHT22;4464;50.882;4.730;2023-02-22T08:32:50;7.00;99.90
8856;DHT22;4464;50.882;4.730;2023-02-22T08:35:18;7.00;99.90
8856;DHT22;4464;50.882;4.730;2023-02-22T08:37:52;7.10;99.90
8856;DHT22;4464;50.882;4.730;2023-02-22T08:40:21;7.20;99.90
8856;DHT22;4464;50.882;4.730;2023-02-22T08:42:49;7.40;99.90
8856;DHT22;4464;50.882;4.730;2023-02-22T08:45:18;7.50;99.90
8856;DHT22;4464;50.882;4.730;2023-02-22T08:47:45;7.50;99.90
8856;DHT22;4464;50.882;4.730;2023-02-22T08:50:23;7.50;99.90
8856;DHT22;4464;50.882;4.730;2023-02-22T08:52:54;7.60;99.90
8856;DHT22;4464;50.882;4.730;2023-02-22T08:55:22;7.80;99.90
8856;DHT22;4464;50.882;4.730;2023-02-22T08:57:51;8.00;99.90
8856;DHT22;4464;50.882;4.730;2023-02-22T09:00:18;8.00;99.90
8856;DHT22;4464;50.882;4.730;2023-02-22T09:02:44;8.20;99.90
8856;DHT22;4464;50.882;4.730;2023-02-22T09:05:10;8.50;99.90
8856;DHT22;4464;50.882;4.730;2023-02-22T09:07:44;8.70;99.90
8856;DHT22;4464;50.882;4.730;2023-02-22T09:10:13;8.80;99.90
8856;DHT22;4464;50.882;4.730;2023-02-22T09:12:40;9.00;99.90
8856;DHT22;4464;50.882;4.730;2023-02-22T09:15:07;9.30;99.90
8856;DHT22;4464;50.882;4.730;2023-02-22T09:17:32;9.30;99.90
8856;DHT22;4464;50.882;4.730;2023-02-22T09:20:03;9.50;99.90
8856;DHT22;4464;50.882;4.730;2023-02-22T09:22:31;9.60;99.90
8856;DHT22;4464;50.882;4.730;2023-02-22T09:24:57;9.50;99.90
8856;DHT22;4464;50.882;4.730;2023-02-22T09:27:28;9.50;99.90
8856;DHT22;4464;50.882;4.730;2023-02-22T09:29:54;9.60;99.90
8856;DHT22;4464;50.882;4.730;2023-02-22T09:32:23;9.50;99.90
8856;DHT22;4464;50.882;4.730;2023-02-22T09:34:52;9.50;99.90
8856;DHT22;4464;50.882;4.730;2023-02-22T09:37:18;9.60;99.90
8856;DHT22;4464;50.882;4.730;2023-02-22T09:39:44;9.60;99.90
8856;DHT22;4464;50.882;4.730;2023-02-22T09:45:05;9.50;99.90
8856;DHT22;4464;50.882;4.730;2023-02-22T09:47:57;9.50;99.90
8856;DHT22;4464;50.882;4.730;2023-02-22T09:50:27;9.40;99.90
8856;DHT22;4464;50.882;4.730;2023-02-22T09:53:04;9.40;99.90
8856;DHT22;4464;50.882;4.730;2023-02-22T09:55:49;9.40;99.90
8856;DHT22;4464;50.882;4.730;2023-02-22T10:01:03;9.40;99.90
8856;DHT22;4464;50.882;4.730;2023-02-22T10:03:57;9.30;99.90
8856;DHT22;4464;50.882;4.730;2023-02-22T10:06:25;9.40;99.90
8856;DHT22;4464;50.882;4.730;2023-02-22T10:08:58;9.30;99.90
8856;DHT22;4464;50.882;4.730;2023-02-22T10:27:15;9.80;99.90
8856;DHT22;4464;50.882;4.730;2023-02-22T10:30:38;9.70;99.90
8856;DHT22;4464;50.882;4.730;2023-02-22T10:32:43;9.80;99.90
8856;DHT22;4464;50.882;4.730;2023-02-22T10:35:32;9.70;99.90
8856;DHT22;4464;50.882;4.730;2023-02-22T10:38:10;9.70;99.90
8856;DHT22;4464;50.882;4.730;2023-02-22T10:40:37;9.80;99.90
8856;DHT22;4464;50.882;4.730;2023-02-22T10:43:06;9.70;99.90
8856;DHT22;4464;50.882;4.730;2023-02-22T10:45:33;9.80;99.90
8856;DHT22;4464;50.882;4.730;2023-02-22T10:48:15;9.90;99.90
8856;DHT22;4464;50.882;4.730;2023-02-22T10:50:45;10.00;99.90
8856;DHT22;4464;50.882;4.730;2023-02-22T10:53:12;10.10;99.90
8856;DHT22;4464;50.882;4.730;2023-02-22T10:58:59;10.30;99.90
8856;DHT22;4464;50.882;4.730;2023-02-22T11:04:20;10.50;99.90
8856;DHT22;4464;50.882;4.730;2023-02-22T11:07:11;10.80;99.90
8856;DHT22;4464;50.882;4.730;2023-02-22T11:09:55;10.80;99.90
8856;DHT22;4464;50.882;4.730;2023-02-22T11:12:34;11.00;99.90
8856;DHT22;4464;50.882;4.730;2023-02-22T11:17:56;11.40;99.90
8856;DHT22;4464;50.882;4.730;2023-02-22T11:20:28;11.40;99.90
8856;DHT22;4464;50.882;4.730;2023-02-22T11:23:01;11.30;99.90
8856;DHT22;4464;50.882;4.730;2023-02-22T11:25:32;11.30;99.90
8856;DHT22;4464;50.882;4.730;2023-02-22T11:28:09;11.30;99.90
8856;DHT22;4464;50.882;4.730;2023-02-22T11:30:37;11.40;99.90
8856;DHT22;4464;50.882;4.730;2023-02-22T11:38:21;11.50;99.90
8856;DHT22;4464;50.882;4.730;2023-02-22T11:43:40;11.50;99.90
8856;DHT22;4464;50.882;4.730;2023-02-22T11:48:53;11.50;99.90
8856;DHT22;4464;50.882;4.730;2023-02-22T12:03:14;11.60;99.90
8856;DHT22;4464;50.882;4.730;2023-02-22T12:11:13;11.50;99.90
8856;DHT22;4464;50.882;4.730;2023-02-22T12:21:35;11.60;99.90
8856;DHT22;4464;50.882;4.730;2023-02-22T12:24:06;11.70;99.90
8856;DHT22;4464;50.882;4.730;2023-02-22T12:26:42;11.90;99.90
8856;DHT22;4464;50.882;4.730;2023-02-22T12:29:29;11.90;99.90
8856;DHT22;4464;50.882;4.730;2023-02-22T12:37:58;12.00;99.90
8856;DHT22;4464;50.882;4.730;2023-02-22T12:40:36;12.00;99.90
8856;DHT22;4464;50.882;4.730;2023-02-22T12:51:18;12.30;99.90
8856;DHT22;4464;50.882;4.730;2023-02-22T12:54:00;12.30;99.90
8856;DHT22;4464;50.882;4.730;2023-02-22T12:59:18;12.40;99.90
8856;DHT22;4464;50.882;4.730;2023-02-22T13:01:52;12.30;99.90
8856;DHT22;4464;50.882;4.730;2023-02-22T13:04:19;12.30;99.90
8856;DHT22;4464;50.882;4.730;2023-02-22T13:18:03;11.90;99.90
8856;DHT22;4464;50.882;4.730;2023-02-22T13:20:41;12.00;99.90
8856;DHT22;4464;50.882;4.730;2023-02-22T13:23:15;12.00;99.90
8856;DHT22;4464;50.882;4.730;2023-02-22T13:25:51;11.90;99.90
8856;DHT22;4464;50.882;4.730;2023-02-22T13:31:39;11.80;99.90
8856;DHT22;4464;50.882;4.730;2023-02-22T13:34:11;11.70;99.90
8856;DHT22;4464;50.882;4.730;2023-02-22T13:52:44;11.80;99.90
8856;DHT22;4464;50.882;4.730;2023-02-22T13:55:20;11.70;99.90
8856;DHT22;4464;50.882;4.730;2023-02-22T13:57:48;11.70;99.90
8856;DHT22;4464;50.882;4.730;2023-02-22T14:03:44;11.60;99.90
8856;DHT22;4464;50.882;4.730;2023-02-22T14:11:04;11.50;99.90
8856;DHT22;4464;50.882;4.730;2023-02-22T14:16:27;11.60;99.90
8856;DHT22;4464;50.882;4.730;2023-02-22T14:19:04;11.70;99.90
8856;DHT22;4464;50.882;4.730;2023-02-22T14:21:58;11.70;99.90
8856;DHT22;4464;50.882;4.730;2023-02-22T14:24:28;11.70;99.90
8856;DHT22;4464;50.882;4.730;2023-02-22T14:26:58;11.70;99.90
8856;DHT22;4464;50.882;4.730;2023-02-22T14:29:25;11.70;99.90
8856;DHT22;4464;50.882;4.730;2023-02-22T14:37:37;11.60;99.90
8856;DHT22;4464;50.882;4.730;2023-02-22T14:40:07;11.60;99.90
8856;DHT22;4464;50.882;4.730;2023-02-22T14:45:34;11.60;99.90
8856;DHT22;4464;50.882;4.730;2023-02-22T14:55:59;11.50;99.90
8856;DHT22;4464;50.882;4.730;2023-02-22T15:01:35;11.40;99.90
8856;DHT22;4464;50.882;4.730;2023-02-22T15:04:20;11.40;99.90
8856;DHT22;4464;50.882;4.730;2023-02-22T15:06:48;11.40;99.90
8856;DHT22;4464;50.882;4.730;2023-02-22T15:09:32;11.40;99.90
8856;DHT22;4464;50.882;4.730;2023-02-22T15:14:29;11.30;99.90
8856;DHT22;4464;50.882;4.730;2023-02-22T15:17:02;11.20;99.90
8856;DHT22;4464;50.882;4.730;2023-02-22T15:19:31;11.20;99.90
8856;DHT22;4464;50.882;4.730;2023-02-22T15:22:03;11.20;99.90
8856;DHT22;4464;50.882;4.730;2023-02-22T15:24:34;11.10;99.90
8856;DHT22;4464;50.882;4.730;2023-02-22T15:27:13;11.10;99.90
8856;DHT22;4464;50.882;4.730;2023-02-22T15:29:42;11.10;99.90
8856;DHT22;4464;50.882;4.730;2023-02-22T15:32:38;11.10;99.90
8856;DHT22;4464;50.882;4.730;2023-02-22T15:37:36;11.10;99.90
8856;DHT22;4464;50.882;4.730;2023-02-22T15:40:10;11.00;99.90
8856;DHT22;4464;50.882;4.730;2023-02-22T15:42:47;10.90;99.90
8856;DHT22;4464;50.882;4.730;2023-02-22T15:45:19;10.90;99.90
8856;DHT22;4464;50.882;4.730;2023-02-22T15:47:45;10.90;99.90
8856;DHT22;4464;50.882;4.730;2023-02-22T15:52:52;10.80;99.90
8856;DHT22;4464;50.882;4.730;2023-02-22T15:55:42;10.80;99.90
8856;DHT22;4464;50.882;4.730;2023-02-22T16:00:47;10.70;99.90
8856;DHT22;4464;50.882;4.730;2023-02-22T16:03:18;10.70;99.90
8856;DHT22;4464;50.882;4.730;2023-02-22T16:05:52;10.70;99.90
8856;DHT22;4464;50.882;4.730;2023-02-22T16:08:23;10.60;99.90
8856;DHT22;4464;50.882;4.730;2023-02-22T16:11:08;10.60;99.90
8856;DHT22;4464;50.882;4.730;2023-02-22T16:13:39;10.60;99.90
8856;DHT22;4464;50.882;4.730;2023-02-22T16:19:31;10.50;99.90
8856;DHT22;4464;50.882;4.730;2023-02-22T16:22:02;10.50;99.90
8856;DHT22;4464;50.882;4.730;2023-02-22T16:24:34;10.40;99.90
8856;DHT22;4464;50.882;4.730;2023-02-22T16:29:41;10.40;99.90
8856;DHT22;4464;50.882;4.730;2023-02-22T16:32:07;10.40;99.90
8856;DHT22;4464;50.882;4.730;2023-02-22T16:34:33;10.30;99.90
8856;DHT22;4464;50.882;4.730;2023-02-22T16:37:03;10.20;99.90
8856;DHT22;4464;50.882;4.730;2023-02-22T16:39:30;10.10;99.90
8856;DHT22;4464;50.882;4.730;2023-02-22T16:42:01;10.10;99.90
8856;DHT22;4464;50.882;4.730;2023-02-22T16:44:28;10.10;99.90
8856;DHT22;4464;50.882;4.730;2023-02-22T16:46:56;10.10;99.90
8856;DHT22;4464;50.882;4.730;2023-02-22T16:49:23;10.10;99.90
8856;DHT22;4464;50.882;4.730;2023-02-22T16:51:58;10.00;99.90
8856;DHT22;4464;50.882;4.730;2023-02-22T16:54:32;10.00;99.90
8856;DHT22;4464;50.882;4.730;2023-02-22T16:57:04;10.00;99.90
8856;DHT22;4464;50.882;4.730;2023-02-22T16:59:38;10.00;99.90
8856;DHT22;4464;50.882;4.730;2023-02-22T17:02:12;10.00;99.90
8856;DHT22;4464;50.882;4.730;2023-02-22T17:04:38;9.90;99.90
8856;DHT22;4464;50.882;4.730;2023-02-22T17:07:04;9.90;99.90
8856;DHT22;4464;50.882;4.730;2023-02-22T17:09:30;9.90;99.90
8856;DHT22;4464;50.882;4.730;2023-02-22T17:11:58;9.90;99.90
8856;DHT22;4464;50.882;4.730;2023-02-22T17:14:29;9.90;99.90
8856;DHT22;4464;50.882;4.730;2023-02-22T17:16:58;9.80;99.90
8856;DHT22;4464;50.882;4.730;2023-02-22T17:19:26;9.70;99.90
8856;DHT22;4464;50.882;4.730;2023-02-22T17:21:52;9.70;99.90
8856;DHT22;4464;50.882;4.730;2023-02-22T17:24:21;9.70;99.90
8856;DHT22;4464;50.882;4.730;2023-02-22T17:26:50;9.70;99.90
8856;DHT22;4464;50.882;4.730;2023-02-22T17:29:17;9.70;99.90
8856;DHT22;4464;50.882;4.730;2023-02-22T17:31:43;9.60;99.90
8856;DHT22;4464;50.882;4.730;2023-02-22T17:34:10;9.70;99.90
8856;DHT22;4464;50.882;4.730;2023-02-22T17:36:35;9.60;99.90
8856;DHT22;4464;50.882;4.730;2023-02-22T17:39:03;9.60;99.90
8856;DHT22;4464;50.882;4.730;2023-02-22T17:41:29;9.70;99.90
8856;DHT22;4464;50.882;4.730;2023-02-22T17:44:00;9.70;99.90
8856;DHT22;4464;50.882;4.730;2023-02-22T17:46:26;9.70;99.90
8856;DHT22;4464;50.882;4.730;2023-02-22T17:48:54;9.70;99.90
8856;DHT22;4464;50.882;4.730;2023-02-22T17:51:22;9.60;99.90
8856;DHT22;4464;50.882;4.730;2023-02-22T17:53:49;9.60;99.90
8856;DHT22;4464;50.882;4.730;2023-02-22T17:56:18;9.60;99.90
8856;DHT22;4464;50.882;4.730;2023-02-22T17:58:45;9.60;99.90
8856;DHT22;4464;50.882;4.730;2023-02-22T18:01:23;9.50;99.90
8856;DHT22;4464;50.882;4.730;2023-02-22T18:03:53;9.60;99.90
8856;DHT22;4464;50.882;4.730;2023-02-22T18:06:20;9.50;99.90
8856;DHT22;4464;50.882;4.730;2023-02-22T18:08:47;9.50;99.90
8856;DHT22;4464;50.882;4.730;2023-02-22T18:11:14;9.50;99.90
8856;DHT22;4464;50.882;4.730;2023-02-22T18:13:40;9.50;99.90
8856;DHT22;4464;50.882;4.730;2023-02-22T18:16:06;9.50;99.90
8856;DHT22;4464;50.882;4.730;2023-02-22T18:18:33;9.50;99.90
8856;DHT22;4464;50.882;4.730;2023-02-22T18:20:58;9.50;99.90
8856;DHT22;4464;50.882;4.730;2023-02-22T18:23:28;9.40;99.90
8856;DHT22;4464;50.882;4.730;2023-02-22T18:25:55;9.50;99.90
8856;DHT22;4464;50.882;4.730;2023-02-22T18:28:21;9.40;99.90
8856;DHT22;4464;50.882;4.730;2023-02-22T18:30:48;9.40;99.90
8856;DHT22;4464;50.882;4.730;2023-02-22T18:33:17;9.40;99.90
8856;DHT22;4464;50.882;4.730;2023-02-22T18:35:49;9.30;99.90
8856;DHT22;4464;50.882;4.730;2023-02-22T18:38:18;9.30;99.90
8856;DHT22;4464;50.882;4.730;2023-02-22T18:41:01;9.40;99.90
8856;DHT22;4464;50.882;4.730;2023-02-22T18:43:27;9.40;99.90
8856;DHT22;4464;50.882;4.730;2023-02-22T18:45:54;9.40;99.90
8856;DHT22;4464;50.882;4.730;2023-02-22T18:48:20;9.40;99.90
8856;DHT22;4464;50.882;4.730;2023-02-22T18:50:45;9.40;99.90
8856;DHT22;4464;50.882;4.730;2023-02-22T18:53:13;9.30;99.90
8856;DHT22;4464;50.882;4.730;2023-02-22T18:55:39;9.30;99.90
8856;DHT22;4464;50.882;4.730;2023-02-22T18:58:05;9.30;99.90
8856;DHT22;4464;50.882;4.730;2023-02-22T19:00:33;9.30;99.90
8856;DHT22;4464;50.882;4.730;2023-02-22T19:03:02;9.30;99.90
8856;DHT22;4464;50.882;4.730;2023-02-22T19:05:30;9.30;99.90
8856;DHT22;4464;50.882;4.730;2023-02-22T19:07:57;9.30;99.90
8856;DHT22;4464;50.882;4.730;2023-02-22T19:10:26;9.30;99.90
8856;DHT22;4464;50.882;4.730;2023-02-22T19:12:52;9.40;99.90
8856;DHT22;4464;50.882;4.730;2023-02-22T19:15:18;9.30;99.90
8856;DHT22;4464;50.882;4.730;2023-02-22T19:17:44;9.40;99.90
8856;DHT22;4464;50.882;4.730;2023-02-22T19:20:11;9.40;99.90
8856;DHT22;4464;50.882;4.730;2023-02-22T19:22:39;9.40;99.90
8856;DHT22;4464;50.882;4.730;2023-02-22T19:25:06;9.40;99.90
8856;DHT22;4464;50.882;4.730;2023-02-22T19:27:32;9.40;99.90
8856;DHT22;4464;50.882;4.730;2023-02-22T19:29:59;9.30;99.90
8856;DHT22;4464;50.882;4.730;2023-02-22T19:32:25;9.40;99.90
8856;DHT22;4464;50.882;4.730;2023-02-22T19:34:52;9.50;99.90
8856;DHT22;4464;50.882;4.730;2023-02-22T19:37:27;9.50;99.90
8856;DHT22;4464;50.882;4.730;2023-02-22T19:39:59;9.50;99.90
8856;DHT22;4464;50.882;4.730;2023-02-22T19:42:28;9.50;99.90
8856;DHT22;4464;50.882;4.730;2023-02-22T19:44:54;9.50;99.90
8856;DHT22;4464;50.882;4.730;2023-02-22T19:47:20;9.50;99.90